Time;durP1;ratioP1;P1;durP2;ratioP2;P2;SDS_P1;SDS_P2;PMS_P1;PMS_P2;Temp;Humidity;BMP_temperature;BMP_pressure;BME280_temperature;BME280_humidity;BME280_pressure;Samples;Min_cycle;Max_cycle;Signal;HPM_P1;HPM_P2
2022/04/24 00:04:48;;;;;;;10.20;8.30;;;11.50;99.90;;;;;;10393013;28;20589;-69
2022/04/24 00:09:52;;;;;;;8.93;7.60;;;11.50;99.90;;;;;;10385229;28;20264;-68
2022/04/24 00:14:52;;;;;;;8.43;7.53;;;11.50;99.90;;;;;;10383967;28;20221;-68
2022/04/24 00:19:53;;;;;;;7.77;7.03;;;11.50;99.90;;;;;;10390604;28;20216;-69
2022/04/24 00:24:54;;;;;;;8.20;7.17;;;11.40;99.90;;;;;;10397143;28;20209;-67
2022/04/24 00:29:54;;;;;;;7.53;6.40;;;11.40;99.90;;;;;;10384055;28;20611;-68
2022/04/24 00:34:55;;;;;;;9.07;6.70;;;11.30;99.90;;;;;;10389458;28;20617;-68
2022/04/24 00:39:56;;;;;;;7.40;6.27;;;11.30;99.90;;;;;;10388370;28;20291;-68
2022/04/24 00:44:57;;;;;;;7.37;6.13;;;11.40;99.90;;;;;;10389248;28;20303;-69
2022/04/24 00:49:57;;;;;;;6.53;5.77;;;11.40;99.90;;;;;;10384238;28;20291;-69
2022/04/24 00:54:58;;;;;;;6.00;5.10;;;11.40;99.90;;;;;;10390863;28;20240;-69
2022/04/24 00:59:59;;;;;;;6.00;5.33;;;11.50;99.90;;;;;;10382501;28;20307;-68
2022/04/24 01:05:00;;;;;;;8.47;5.10;;;11.50;99.90;;;;;;10389674;28;20208;-69
2022/04/24 01:10:01;;;;;;;6.13;5.07;;;11.50;99.90;;;;;;10389708;28;20631;-68
2022/04/24 01:15:01;;;;;;;4.90;4.40;;;11.60;99.90;;;;;;10388299;28;20216;-68
2022/04/24 01:20:03;;;;;;;4.80;4.30;;;11.60;99.90;;;;;;10384621;28;20485;-68
2022/04/24 01:25:03;;;;;;;5.33;4.10;;;11.70;99.90;;;;;;10386202;28;20644;-69
2022/04/24 01:30:05;;;;;;;4.20;3.80;;;11.70;99.90;;;;;;10383502;28;20226;-67
2022/04/24 01:35:13;;;;;;;4.80;4.10;;;11.70;99.90;;;;;;10387516;28;20193;-68
2022/04/24 01:40:13;;;;;;;4.50;3.60;;;11.80;99.90;;;;;;10385886;28;20380;-68
2022/04/24 01:45:14;;;;;;;4.70;3.80;;;11.80;99.90;;;;;;10386698;28;20272;-69
2022/04/24 01:50:14;;;;;;;4.93;3.30;;;11.80;99.90;;;;;;10390130;28;20197;-68
2022/04/24 01:55:15;;;;;;;3.40;3.10;;;11.80;99.90;;;;;;10384767;28;20200;-69
2022/04/24 02:00:16;;;;;;;3.37;3.07;;;11.80;99.90;;;;;;10385749;28;20205;-69
2022/04/24 02:05:17;;;;;;;4.20;3.20;;;11.70;99.90;;;;;;10389724;28;20196;-68
2022/04/24 02:10:18;;;;;;;5.03;3.20;;;11.70;99.90;;;;;;10385727;28;20785;-68
2022/04/24 02:15:19;;;;;;;3.37;2.93;;;11.70;99.90;;;;;;10382410;28;20279;-68
2022/04/24 02:20:19;;;;;;;4.63;3.60;;;11.70;99.80;;;;;;10396496;28;20219;-68
2022/04/24 02:25:20;;;;;;;3.70;3.30;;;11.70;99.40;;;;;;10392291;28;20185;-69
2022/04/24 02:30:25;;;;;;;4.33;3.20;;;11.70;99.40;;;;;;10399426;28;20213;-69
2022/04/24 02:35:30;;;;;;;4.00;3.50;;;11.60;99.50;;;;;;10393712;28;20220;-68
2022/04/24 02:40:30;;;;;;;3.60;3.30;;;11.60;99.40;;;;;;10388847;28;20592;-69
2022/04/24 02:45:31;;;;;;;3.77;3.40;;;11.60;99.30;;;;;;10393363;28;20228;-68
2022/04/24 02:50:32;;;;;;;4.83;3.17;;;11.60;99.20;;;;;;10397390;28;20224;-68
2022/04/24 02:55:32;;;;;;;4.47;3.53;;;11.60;99.40;;;;;;10393700;28;20212;-68
2022/04/24 03:00:49;;;;;;;4.43;3.33;;;11.60;99.30;;;;;;10394206;28;20280;-68
2022/04/24 03:05:50;;;;;;;4.50;3.20;;;11.60;99.30;;;;;;10403119;28;20220;-69
2022/04/24 03:10:50;;;;;;;6.07;3.33;;;11.60;99.40;;;;;;10387268;28;20217;-68
2022/04/24 03:15:51;;;;;;;3.63;3.33;;;11.60;99.30;;;;;;10386449;28;20225;-68
2022/04/24 03:20:52;;;;;;;5.10;3.50;;;11.60;99.10;;;;;;10392614;28;20255;-68
2022/04/24 03:25:52;;;;;;;4.70;3.83;;;11.60;99.60;;;;;;10384335;28;20224;-68
2022/04/24 03:30:53;;;;;;;5.13;3.90;;;11.60;98.90;;;;;;10392216;28;20224;-68
2022/04/24 03:35:53;;;;;;;5.50;4.20;;;11.60;98.80;;;;;;10387062;28;20221;-69
2022/04/24 03:40:54;;;;;;;3.97;3.57;;;11.60;98.80;;;;;;10392110;28;20243;-68
2022/04/24 03:45:54;;;;;;;4.03;3.67;;;11.60;98.90;;;;;;10384825;28;20229;-68
2022/04/24 03:50:55;;;;;;;7.23;4.07;;;11.60;98.90;;;;;;10391660;28;20225;-68
2022/04/24 03:55:55;;;;;;;4.07;3.63;;;11.60;98.70;;;;;;10385222;28;20774;-69
2022/04/24 04:00:56;;;;;;;3.83;3.50;;;11.60;98.80;;;;;;10385720;28;20743;-68
2022/04/24 04:05:57;;;;;;;5.13;3.70;;;11.70;98.70;;;;;;10390525;28;20224;-67
2022/04/24 04:10:57;;;;;;;4.37;3.77;;;11.70;99.10;;;;;;10392701;28;20711;-68
2022/04/24 04:15:58;;;;;;;3.83;3.53;;;11.70;99.10;;;;;;10395820;28;20284;-68
2022/04/24 04:20:59;;;;;;;4.33;3.30;;;11.80;99.10;;;;;;10385046;28;20233;-68
2022/04/24 04:25:59;;;;;;;4.87;3.60;;;11.80;99.30;;;;;;10396345;28;20230;-68
2022/04/24 04:31:00;;;;;;;4.47;3.77;;;11.80;98.90;;;;;;10389079;28;20294;-68
2022/04/24 04:36:00;;;;;;;4.33;3.87;;;11.90;99.90;;;;;;10392089;28;20229;-68
2022/04/24 04:41:02;;;;;;;6.43;4.30;;;11.90;99.90;;;;;;10389988;28;20230;-67
2022/04/24 04:46:05;;;;;;;6.03;4.53;;;11.80;99.90;;;;;;10383224;28;20219;-68
2022/04/24 04:51:06;;;;;;;8.03;4.93;;;11.70;99.90;;;;;;10388139;28;20221;-68
2022/04/24 04:56:06;;;;;;;6.27;4.90;;;11.60;99.90;;;;;;10386999;28;20719;-68
2022/04/24 05:01:07;;;;;;;5.77;5.17;;;11.50;99.90;;;;;;10385398;28;20262;-68
2022/04/24 05:06:07;;;;;;;6.23;4.87;;;11.40;99.90;;;;;;10389747;28;20213;-68
2022/04/24 05:11:08;;;;;;;6.33;5.03;;;11.30;99.90;;;;;;10384236;28;20223;-68
2022/04/24 05:16:08;;;;;;;5.70;5.20;;;11.20;99.90;;;;;;10385912;28;20221;-69
2022/04/24 05:21:09;;;;;;;5.50;5.00;;;11.30;99.90;;;;;;10393970;28;20229;-69
2022/04/24 05:26:09;;;;;;;6.20;5.53;;;11.30;99.90;;;;;;10386369;28;20278;-69
2022/04/24 05:31:10;;;;;;;6.23;5.63;;;11.30;99.90;;;;;;10386529;28;20299;-70
2022/04/24 05:36:11;;;;;;;5.97;5.20;;;11.30;99.90;;;;;;10384605;28;20220;-69
2022/04/24 05:41:11;;;;;;;6.37;5.53;;;11.30;99.90;;;;;;10387894;28;20232;-72
2022/04/24 05:46:12;;;;;;;6.00;5.17;;;11.40;99.90;;;;;;10392443;28;20217;-68
2022/04/24 05:51:13;;;;;;;6.43;5.67;;;11.40;99.90;;;;;;10391001;28;20271;-69
2022/04/24 05:56:13;;;;;;;6.90;6.20;;;11.50;99.90;;;;;;10393072;28;20225;-69
2022/04/24 06:01:14;;;;;;;6.73;6.03;;;11.40;99.90;;;;;;10392827;28;20233;-68
2022/04/24 06:06:16;;;;;;;6.73;6.10;;;11.40;99.90;;;;;;10395135;28;20715;-68
2022/04/24 06:11:18;;;;;;;6.63;5.93;;;11.50;99.90;;;;;;10388467;28;20266;-68
2022/04/24 06:16:19;;;;;;;6.80;6.20;;;11.40;99.90;;;;;;10396581;28;20461;-68
2022/04/24 06:21:20;;;;;;;7.77;6.23;;;11.40;99.90;;;;;;10391122;28;20237;-68
2022/04/24 06:26:21;;;;;;;7.50;6.80;;;11.50;99.90;;;;;;10392913;28;20712;-68
2022/04/24 06:31:21;;;;;;;7.20;6.50;;;11.70;99.90;;;;;;10399562;28;20217;-68
2022/04/24 06:36:25;;;;;;;7.20;6.50;;;11.70;99.90;;;;;;10391712;28;20327;-68
2022/04/24 06:41:26;;;;;;;7.10;6.43;;;11.80;99.90;;;;;;10397295;28;20296;-68
2022/04/24 06:46:26;;;;;;;6.70;6.10;;;12.00;99.90;;;;;;10393346;28;20221;-68
2022/04/24 06:51:27;;;;;;;7.00;6.30;;;12.10;99.90;;;;;;10400722;28;20310;-68
2022/04/24 06:56:28;;;;;;;7.13;6.00;;;12.20;99.90;;;;;;10390685;28;20229;-68
2022/04/24 07:01:30;;;;;;;6.40;5.80;;;12.20;99.90;;;;;;10392395;28;20648;-67
2022/04/24 07:06:30;;;;;;;8.87;6.20;;;12.20;99.90;;;;;;10393420;28;20241;-69
2022/04/24 07:11:32;;;;;;;9.00;6.63;;;12.10;99.90;;;;;;10393078;28;20263;-69
2022/04/24 07:16:35;;;;;;;6.87;6.17;;;12.20;99.90;;;;;;10393668;28;20215;-69
2022/04/24 07:21:35;;;;;;;8.93;6.30;;;12.30;99.90;;;;;;10386072;28;20241;-69
2022/04/24 07:26:39;;;;;;;6.53;5.87;;;12.30;99.90;;;;;;10388118;28;20711;-70
2022/04/24 07:31:39;;;;;;;6.80;6.20;;;12.40;99.90;;;;;;10395089;28;20290;-69
2022/04/24 07:36:40;;;;;;;7.40;6.30;;;12.40;99.90;;;;;;10393806;28;20630;-68
2022/04/24 07:41:42;;;;;;;6.60;6.00;;;12.50;99.90;;;;;;10386169;28;20237;-69
2022/04/24 07:46:42;;;;;;;7.57;6.87;;;12.60;99.90;;;;;;10392919;28;20287;-69
2022/04/24 07:51:43;;;;;;;8.10;6.27;;;12.80;99.90;;;;;;10383951;28;20221;-69
2022/04/24 07:56:46;;;;;;;7.20;5.87;;;13.20;99.90;;;;;;10384367;28;20660;-68
2022/04/24 08:01:51;;;;;;;7.90;6.80;;;13.30;99.90;;;;;;10383151;28;20264;-68
2022/04/24 08:06:51;;;;;;;7.57;6.77;;;13.20;99.90;;;;;;10398607;28;20263;-69
2022/04/24 08:11:52;;;;;;;7.67;6.87;;;12.90;99.90;;;;;;10383382;28;20249;-68
2022/04/24 08:16:52;;;;;;;7.80;6.97;;;12.80;99.90;;;;;;10390990;28;20225;-68
2022/04/24 08:21:53;;;;;;;8.03;7.23;;;12.70;99.90;;;;;;10398993;28;20609;-68
2022/04/24 08:26:53;;;;;;;7.37;6.67;;;12.80;99.90;;;;;;10383998;28;20825;-68
2022/04/24 08:31:54;;;;;;;11.53;8.33;;;13.30;99.90;;;;;;10390057;28;20221;-69
2022/04/24 08:36:54;;;;;;;9.17;7.70;;;14.10;99.90;;;;;;10384616;28;20685;-69
2022/04/24 08:42:02;;;;;;;8.20;7.40;;;14.50;99.90;;;;;;10390317;28;20238;-68
2022/04/24 08:47:03;;;;;;;8.13;7.33;;;15.10;99.90;;;;;;10366380;28;20228;-68
2022/04/24 08:52:05;;;;;;;8.70;7.80;;;15.50;99.90;;;;;;10380470;28;20236;-68
2022/04/24 08:57:06;;;;;;;9.13;8.23;;;15.70;99.90;;;;;;10386570;28;20569;-68
2022/04/24 09:02:09;;;;;;;8.07;7.37;;;15.70;99.60;;;;;;10391391;28;20248;-69
2022/04/24 09:07:11;;;;;;;9.13;7.80;;;16.30;98.10;;;;;;10389755;28;20764;-69
2022/04/24 09:12:15;;;;;;;12.13;8.20;;;16.80;95.40;;;;;;10395880;28;20227;-68
2022/04/24 09:17:20;;;;;;;9.00;7.90;;;16.50;95.20;;;;;;10386898;28;20280;-68
2022/04/24 09:22:24;;;;;;;8.10;7.30;;;16.20;95.90;;;;;;10382756;28;20313;-68
2022/04/24 09:27:28;;;;;;;10.00;8.53;;;16.40;95.60;;;;;;10392764;28;20258;-69
2022/04/24 09:32:36;;;;;;;8.03;7.23;;;16.50;94.00;;;;;;10396906;28;20685;-68
2022/04/24 09:37:40;;;;;;;8.90;8.03;;;16.50;94.30;;;;;;10392213;28;20223;-68
2022/04/24 09:42:54;;;;;;;9.73;8.83;;;16.50;93.70;;;;;;10396876;28;20325;-69
2022/04/24 09:48:03;;;;;;;10.00;8.57;;;16.30;93.80;;;;;;10391501;28;20247;-69
2022/04/24 09:53:05;;;;;;;8.80;7.97;;;16.30;93.80;;;;;;10403385;28;20237;-69
2022/04/24 09:58:08;;;;;;;10.53;8.57;;;16.70;93.60;;;;;;10399234;28;20451;-68
2022/04/24 10:03:18;;;;;;;9.83;8.83;;;16.40;92.90;;;;;;10391705;28;20762;-68
2022/04/24 10:08:19;;;;;;;10.47;9.30;;;16.00;93.70;;;;;;10393751;28;20226;-68
2022/04/24 10:13:23;;;;;;;9.87;8.87;;;16.00;93.80;;;;;;10397095;28;20653;-69
2022/04/24 10:18:38;;;;;;;9.80;8.83;;;15.70;94.30;;;;;;10397520;28;20242;-69
2022/04/24 10:23:38;;;;;;;11.17;8.80;;;15.40;95.00;;;;;;10396791;28;20299;-69
2022/04/24 10:28:40;;;;;;;9.90;8.90;;;15.50;94.90;;;;;;10396099;28;20313;-68
2022/04/24 10:33:53;;;;;;;9.57;8.53;;;15.40;95.30;;;;;;10396045;28;20719;-69
2022/04/24 10:38:57;;;;;;;9.10;8.23;;;15.40;95.40;;;;;;10386344;28;20233;-68
2022/04/24 10:44:16;;;;;;;9.40;8.50;;;15.40;95.20;;;;;;10401626;28;20209;-69
2022/04/24 10:49:18;;;;;;;9.17;8.27;;;15.40;95.10;;;;;;10387941;28;20733;-68
2022/04/24 10:54:19;;;;;;;9.03;8.13;;;15.40;95.10;;;;;;10391295;28;20251;-68
2022/04/24 10:59:21;;;;;;;7.67;6.97;;;15.40;94.70;;;;;;10391014;28;20274;-69
2022/04/24 11:04:23;;;;;;;8.00;7.20;;;15.50;94.90;;;;;;10401785;28;20248;-68
2022/04/24 11:09:29;;;;;;;7.80;6.97;;;15.60;94.90;;;;;;10388326;28;20256;-69
2022/04/24 11:14:37;;;;;;;8.77;7.83;;;15.70;94.60;;;;;;10391891;28;20248;-68
2022/04/24 11:19:44;;;;;;;8.63;7.83;;;15.90;94.80;;;;;;10392739;28;20626;-69
2022/04/24 11:24:45;;;;;;;8.53;6.90;;;16.10;95.60;;;;;;10393497;28;20218;-68
2022/04/24 11:29:45;;;;;;;8.77;7.87;;;16.10;95.80;;;;;;10386062;28;20227;-68
2022/04/24 11:34:47;;;;;;;10.40;8.53;;;16.10;96.30;;;;;;10393948;28;20229;-68
2022/04/24 11:39:47;;;;;;;9.63;8.63;;;16.10;96.90;;;;;;10385436;28;20682;-68
2022/04/24 11:50:14;;;;;;;9.37;8.47;;;16.00;97.90;;;;;;10387254;28;20218;-68
2022/04/24 12:00:54;;;;;;;9.43;8.37;;;16.00;98.60;;;;;;10385419;28;20241;-68
2022/04/24 12:06:03;;;;;;;9.93;9.03;;;16.20;98.90;;;;;;10389643;28;20229;-68
2022/04/24 12:11:03;;;;;;;9.93;8.93;;;16.10;99.00;;;;;;10385751;28;20232;-69
2022/04/24 12:16:04;;;;;;;11.20;10.10;;;16.10;99.40;;;;;;10399864;28;20592;-68
2022/04/24 12:21:17;;;;;;;10.47;9.47;;;16.00;99.90;;;;;;10389351;28;20702;-69
2022/04/24 12:26:21;;;;;;;10.33;9.33;;;16.00;99.90;;;;;;10391426;28;20231;-68
2022/04/24 12:31:24;;;;;;;9.77;8.87;;;16.20;99.90;;;;;;10386267;28;20279;-68
2022/04/24 12:36:25;;;;;;;10.87;9.80;;;16.50;99.90;;;;;;10385639;28;20233;-69
2022/04/24 12:41:28;;;;;;;10.77;9.67;;;16.60;99.90;;;;;;10387746;28;20234;-69
2022/04/24 12:46:29;;;;;;;10.50;9.50;;;16.60;99.90;;;;;;10377777;28;20225;-68
2022/04/24 12:51:31;;;;;;;10.80;9.73;;;16.60;99.90;;;;;;10389823;28;20219;-69
2022/04/24 12:56:32;;;;;;;11.37;9.80;;;16.60;99.90;;;;;;10396831;28;20233;-68
2022/04/24 13:01:33;;;;;;;12.83;10.10;;;16.70;99.90;;;;;;10383887;28;20875;-67
2022/04/24 13:06:36;;;;;;;10.90;9.80;;;16.80;99.90;;;;;;10397358;28;20246;-68
2022/04/24 13:11:36;;;;;;;10.97;9.77;;;17.00;99.90;;;;;;10384282;28;20261;-68
2022/04/24 13:21:56;;;;;;;10.17;9.17;;;17.10;99.90;;;;;;10389811;28;20262;-68
2022/04/24 13:27:00;;;;;;;11.67;10.57;;;17.00;99.90;;;;;;10384228;28;20257;-68
2022/04/24 13:32:00;;;;;;;10.53;9.63;;;16.80;99.90;;;;;;10387559;28;20775;-69
2022/04/24 13:42:20;;;;;;;10.80;9.80;;;16.30;99.90;;;;;;10385725;28;20247;-69
2022/04/24 13:47:21;;;;;;;11.03;10.03;;;16.10;99.90;;;;;;10386941;28;20226;-70
2022/04/24 13:52:22;;;;;;;11.30;10.17;;;15.90;99.90;;;;;;10383864;28;20607;-67
2022/04/24 13:57:22;;;;;;;11.33;10.13;;;15.70;99.90;;;;;;10385990;28;20228;-68
2022/04/24 14:02:23;;;;;;;10.53;9.47;;;15.60;99.90;;;;;;10389555;28;20273;-68
2022/04/24 14:07:23;;;;;;;10.70;9.70;;;15.30;99.90;;;;;;10389812;28;20293;-69
2022/04/24 14:12:24;;;;;;;11.77;10.67;;;15.20;99.90;;;;;;10389014;28;20261;-68
2022/04/24 14:17:25;;;;;;;12.63;11.33;;;15.20;99.90;;;;;;10387672;28;20323;-68
2022/04/24 14:22:26;;;;;;;11.20;10.10;;;15.20;99.90;;;;;;10401849;28;20576;-68
2022/04/24 14:27:26;;;;;;;13.23;11.87;;;15.10;99.90;;;;;;10395962;28;20225;-68
2022/04/24 14:32:27;;;;;;;13.30;12.00;;;15.00;99.90;;;;;;10390261;28;20246;-69
2022/04/24 14:37:27;;;;;;;13.57;12.23;;;14.80;99.90;;;;;;10393402;28;20323;-69
2022/04/24 14:42:28;;;;;;;14.90;11.87;;;14.70;99.90;;;;;;10389963;28;20238;-68
2022/04/24 14:58:10;;;;;;;12.83;11.63;;;14.20;99.90;;;;;;10392118;28;20218;-68
2022/04/24 15:03:12;;;;;;;12.77;11.57;;;14.10;99.90;;;;;;10386153;28;20282;-68
2022/04/24 15:08:15;;;;;;;12.30;11.10;;;14.20;99.90;;;;;;10387649;28;20689;-68
2022/04/24 15:13:15;;;;;;;14.30;12.37;;;14.30;99.90;;;;;;10386744;28;20221;-69
2022/04/24 15:18:16;;;;;;;13.23;11.83;;;14.30;99.90;;;;;;10389288;28;20224;-68
2022/04/24 15:23:18;;;;;;;11.80;10.60;;;14.30;99.90;;;;;;10402514;28;20229;-68
2022/04/24 15:28:18;;;;;;;12.43;11.20;;;14.40;99.90;;;;;;10399585;28;20652;-67
2022/04/24 15:33:19;;;;;;;13.77;11.53;;;14.40;99.90;;;;;;10389442;28;20272;-68
2022/04/24 15:38:23;;;;;;;13.37;11.97;;;14.40;99.90;;;;;;10390417;28;20233;-68
2022/04/24 15:43:23;;;;;;;13.80;12.50;;;14.30;99.90;;;;;;10388874;28;20309;-68
2022/04/24 15:48:33;;;;;;;15.33;13.73;;;14.00;99.90;;;;;;10391473;28;20687;-68
2022/04/24 15:53:34;;;;;;;15.50;14.00;;;13.80;99.90;;;;;;10385340;28;20212;-68
2022/04/24 15:58:36;;;;;;;16.13;14.43;;;13.70;99.90;;;;;;10398478;28;20208;-68
2022/04/24 16:03:37;;;;;;;13.60;12.30;;;13.60;99.90;;;;;;10387808;28;20780;-69
2022/04/24 16:08:37;;;;;;;14.80;13.30;;;13.50;99.90;;;;;;10385031;28;20308;-69
2022/04/24 16:13:38;;;;;;;14.37;13.07;;;13.60;99.90;;;;;;10391716;28;20212;-68
2022/04/24 16:18:39;;;;;;;13.47;11.80;;;13.50;99.90;;;;;;10385050;28;20217;-69
2022/04/24 16:23:40;;;;;;;13.60;12.30;;;13.30;99.90;;;;;;10397752;28;20581;-67
2022/04/24 16:28:41;;;;;;;13.10;11.83;;;13.30;99.90;;;;;;10386858;28;20251;-68
2022/04/24 16:33:43;;;;;;;14.70;13.13;;;13.30;99.90;;;;;;10390506;28;20718;-69
2022/04/24 16:38:43;;;;;;;13.83;12.53;;;13.30;99.90;;;;;;10382368;28;20416;-68
2022/04/24 16:43:44;;;;;;;12.90;11.60;;;13.30;99.90;;;;;;10391281;28;20304;-68
2022/04/24 16:48:45;;;;;;;12.77;11.50;;;13.30;99.90;;;;;;10382720;28;20312;-68
2022/04/24 16:59:05;;;;;;;12.47;11.30;;;13.30;99.90;;;;;;10385678;28;20233;-68
2022/04/24 17:04:05;;;;;;;12.03;10.93;;;13.20;99.90;;;;;;10388041;28;20220;-68
2022/04/24 17:09:06;;;;;;;12.20;11.00;;;13.20;99.90;;;;;;10395406;28;20803;-68
2022/04/24 17:14:06;;;;;;;11.20;10.13;;;13.10;99.90;;;;;;10385073;28;20249;-68
2022/04/24 17:19:07;;;;;;;11.40;10.30;;;13.10;99.90;;;;;;10376599;28;20228;-68
2022/04/24 17:24:08;;;;;;;11.37;10.30;;;13.10;99.90;;;;;;10396427;28;20216;-69
2022/04/24 17:29:08;;;;;;;11.97;10.87;;;13.00;99.90;;;;;;10388752;28;20233;-68
2022/04/24 17:34:09;;;;;;;14.80;11.57;;;13.00;99.90;;;;;;10385319;28;20231;-68
2022/04/24 17:39:09;;;;;;;11.80;10.60;;;13.00;99.90;;;;;;10386925;28;20323;-69
2022/04/24 17:44:10;;;;;;;11.07;10.07;;;13.00;99.90;;;;;;10386550;28;20227;-69
2022/04/24 17:49:11;;;;;;;11.93;10.13;;;13.00;99.90;;;;;;10395259;28;22583;-67
2022/04/24 17:54:12;;;;;;;9.77;8.87;;;12.90;99.90;;;;;;10394040;28;20228;-69
2022/04/24 17:59:13;;;;;;;11.00;10.00;;;12.80;99.90;;;;;;10406405;28;20726;-68
2022/04/24 18:04:13;;;;;;;11.17;10.07;;;12.70;99.90;;;;;;10392879;28;20221;-68
2022/04/24 18:09:14;;;;;;;10.83;9.73;;;12.60;99.90;;;;;;10393658;28;20212;-68
2022/04/24 18:14:17;;;;;;;10.73;9.73;;;12.50;99.90;;;;;;10389760;28;20259;-68
2022/04/24 18:19:18;;;;;;;10.63;9.63;;;12.40;99.90;;;;;;10399348;28;20695;-68
2022/04/24 18:24:19;;;;;;;11.23;10.13;;;12.40;99.90;;;;;;10400899;28;20231;-68
2022/04/24 18:29:20;;;;;;;11.40;10.40;;;12.30;99.90;;;;;;10389021;28;20228;-68
2022/04/24 18:34:20;;;;;;;11.10;10.10;;;12.20;99.90;;;;;;10392527;28;20241;-68
2022/04/24 18:39:21;;;;;;;12.47;10.83;;;12.20;99.90;;;;;;10397666;28;20244;-68
2022/04/24 18:44:22;;;;;;;11.77;10.60;;;12.20;99.90;;;;;;10393374;28;20360;-68
2022/04/24 18:49:22;;;;;;;12.13;10.83;;;12.20;99.90;;;;;;10390201;28;20239;-68
2022/04/24 18:54:24;;;;;;;12.03;10.77;;;12.10;99.90;;;;;;10396297;28;20964;-69
2022/04/24 18:59:26;;;;;;;12.33;11.17;;;12.10;99.90;;;;;;10392665;28;20280;-70
2022/04/24 19:15:07;;;;;;;12.13;10.93;;;11.70;99.90;;;;;;10379730;28;20221;-69
2022/04/24 19:20:08;;;;;;;12.03;10.83;;;11.60;99.90;;;;;;10391070;28;20282;-71
2022/04/24 19:25:10;;;;;;;12.17;11.07;;;11.50;99.90;;;;;;10396060;28;20177;-70
2022/04/24 19:30:13;;;;;;;12.17;10.90;;;11.50;99.90;;;;;;10390917;28;20332;-69
2022/04/24 19:35:16;;;;;;;12.30;11.10;;;11.40;99.90;;;;;;10390737;28;20181;-68
2022/04/24 19:40:17;;;;;;;12.67;11.40;;;11.40;99.90;;;;;;10391712;28;20312;-69
2022/04/24 19:45:18;;;;;;;12.33;11.07;;;11.30;99.90;;;;;;10389993;28;20283;-69
2022/04/24 19:50:22;;;;;;;12.60;11.23;;;11.20;99.90;;;;;;10396339;28;20265;-69
2022/04/24 19:55:25;;;;;;;12.40;11.10;;;11.10;99.90;;;;;;10391959;28;20226;-68
2022/04/24 20:00:50;;;;;;;11.63;10.43;;;11.00;99.90;;;;;;10386461;28;20275;-69
2022/04/24 20:05:52;;;;;;;12.30;11.10;;;10.90;99.90;;;;;;10389570;28;20229;-69
2022/04/24 20:10:52;;;;;;;11.90;10.70;;;10.80;99.90;;;;;;10392748;28;20483;-69
2022/04/24 20:15:57;;;;;;;12.87;11.57;;;10.70;99.90;;;;;;10386619;28;20312;-70
2022/04/24 20:21:00;;;;;;;12.63;11.33;;;10.60;99.90;;;;;;10399595;28;20228;-69
2022/04/24 20:26:02;;;;;;;12.07;10.90;;;10.40;99.90;;;;;;10380268;28;20232;-69
2022/04/24 20:31:03;;;;;;;13.00;11.60;;;10.30;99.90;;;;;;10393188;28;20739;-69
2022/04/24 20:36:06;;;;;;;12.17;10.93;;;10.20;99.90;;;;;;10391722;28;20280;-69
2022/04/24 20:41:10;;;;;;;13.23;11.93;;;10.10;99.90;;;;;;10382490;28;20247;-70
2022/04/24 20:46:11;;;;;;;12.40;11.07;;;10.00;99.90;;;;;;10392122;28;20242;-68
2022/04/24 20:51:13;;;;;;;15.67;13.07;;;9.90;99.90;;;;;;10387489;28;20228;-70
2022/04/24 20:56:14;;;;;;;12.70;11.37;;;9.80;99.90;;;;;;10389236;28;20304;-70
2022/04/24 21:01:15;;;;;;;11.83;10.63;;;9.60;99.90;;;;;;10383388;28;20327;-69
2022/04/24 21:06:15;;;;;;;13.03;11.73;;;9.50;99.90;;;;;;10382833;28;20247;-69
2022/04/24 21:11:16;;;;;;;13.17;11.80;;;9.40;99.90;;;;;;10388368;28;20327;-68
2022/04/24 21:16:17;;;;;;;13.77;12.37;;;9.30;99.90;;;;;;10390844;28;20227;-69
2022/04/24 21:21:18;;;;;;;13.23;11.27;;;9.20;99.90;;;;;;10398839;28;20327;-69
2022/04/24 21:26:19;;;;;;;13.87;12.50;;;9.20;99.90;;;;;;10392312;28;20318;-69
2022/04/24 21:31:19;;;;;;;13.63;12.43;;;9.10;99.90;;;;;;10400796;28;20228;-70
2022/04/24 21:36:23;;;;;;;13.93;12.57;;;9.00;99.90;;;;;;10396356;28;20226;-70
2022/04/24 21:41:23;;;;;;;14.00;12.70;;;9.00;99.90;;;;;;10399733;28;20231;-70
2022/04/24 21:46:24;;;;;;;13.47;11.93;;;8.90;99.90;;;;;;10391470;28;20766;-68
2022/04/24 21:51:26;;;;;;;14.17;12.87;;;8.90;99.90;;;;;;10394487;28;20224;-70
2022/04/24 21:56:30;;;;;;;13.93;12.53;;;8.90;99.90;;;;;;10403840;28;20259;-69
2022/04/24 22:04:21;;;;;;;15.30;13.70;;;8.90;99.90;;;;;;10392161;28;20243;-68
2022/04/24 22:06:53;;;;;;;15.23;13.63;;;8.80;99.90;;;;;;10390909;28;20232;-68
2022/04/24 22:11:54;;;;;;;14.93;13.47;;;8.70;99.90;;;;;;10394925;28;20228;-69
2022/04/24 22:16:54;;;;;;;14.83;13.40;;;8.60;99.90;;;;;;10390657;28;20571;-69
2022/04/24 22:27:15;;;;;;;14.30;12.90;;;8.40;99.90;;;;;;10399107;28;20221;-69
2022/04/24 22:32:16;;;;;;;15.23;13.67;;;8.40;99.90;;;;;;10394014;28;20235;-70
2022/04/24 22:37:17;;;;;;;16.43;14.70;;;8.30;99.90;;;;;;10391224;28;20225;-69
2022/04/24 22:42:20;;;;;;;15.30;13.80;;;8.30;99.90;;;;;;10392333;28;20247;-69
2022/04/24 22:47:21;;;;;;;15.00;13.50;;;8.30;99.90;;;;;;10392854;28;20293;-68
2022/04/24 22:52:25;;;;;;;15.27;13.67;;;8.20;99.90;;;;;;10397154;28;20667;-69
2022/04/24 22:57:26;;;;;;;14.27;12.70;;;8.20;99.90;;;;;;10388841;28;20248;-68
2022/04/24 23:02:27;;;;;;;15.73;14.23;;;8.10;99.90;;;;;;10388983;28;20263;-69
2022/04/24 23:07:30;;;;;;;14.93;13.30;;;8.00;99.90;;;;;;10396129;28;20224;-69
2022/04/24 23:12:31;;;;;;;15.77;14.17;;;7.90;99.90;;;;;;10398503;28;20612;-69
2022/04/24 23:22:50;;;;;;;15.77;14.17;;;7.80;99.90;;;;;;10387355;28;20221;-71
2022/04/24 23:27:52;;;;;;;17.03;15.23;;;7.80;99.90;;;;;;10387360;28;20217;-68
2022/04/24 23:32:52;;;;;;;15.37;13.87;;;7.80;99.90;;;;;;10393562;28;20225;-68
2022/04/24 23:37:53;;;;;;;16.27;14.57;;;7.70;99.90;;;;;;10392037;28;20598;-68
2022/04/24 23:42:54;;;;;;;15.13;13.63;;;7.60;99.90;;;;;;10385860;28;20236;-69
2022/04/24 23:47:57;;;;;;;16.40;14.80;;;7.60;99.90;;;;;;10408159;28;20754;-70
2022/04/24 23:52:58;;;;;;;16.50;14.73;;;7.60;99.90;;;;;;10387242;28;20227;-68
2022/04/24 23:58:01;;;;;;;17.03;15.23;;;7.60;99.90;;;;;;10389960;28;20229;-69
